createdAt,value
2018-09-06T00:02:19.078Z,99661.00
2018-09-06T00:04:49.137Z,99669.00
2018-09-06T00:07:20.477Z,99670.00
2018-09-06T00:09:50.044Z,99669.00
2018-09-06T00:12:20.778Z,99667.00
2018-09-06T00:14:51.270Z,99670.00
2018-09-06T00:17:23.250Z,99673.00
2018-09-06T00:19:53.100Z,99675.00
2018-09-06T00:22:24.359Z,99673.00
2018-09-06T00:24:53.730Z,99676.00
2018-09-06T00:27:24.052Z,99665.00
2018-09-06T00:29:53.363Z,99656.00
2018-09-06T00:32:27.369Z,99644.00
2018-09-06T00:34:57.232Z,99645.00
2018-09-06T00:37:26.748Z,99641.00
2018-09-06T00:39:56.149Z,99640.00
2018-09-06T00:42:26.097Z,99629.00
2018-09-06T00:44:55.439Z,99635.00
2018-09-06T00:47:24.833Z,99643.00
2018-09-06T00:49:54.550Z,99638.00
2018-09-06T00:52:24.549Z,99631.00
2018-09-06T00:54:53.824Z,99627.00
2018-09-06T00:57:23.233Z,99640.00
2018-09-06T00:59:53.289Z,99637.00
2018-09-06T01:02:23.539Z,99631.00
2018-09-06T01:04:55.092Z,99629.00
2018-09-06T01:07:24.974Z,99618.00
2018-09-06T01:09:54.761Z,99625.00
2018-09-06T01:12:25.466Z,99623.00
2018-09-06T01:14:55.262Z,99624.00
2018-09-06T01:17:24.712Z,99620.00
2018-09-06T01:19:56.206Z,99616.00
2018-09-06T01:22:25.969Z,99624.00
2018-09-06T01:24:55.236Z,99611.00
2018-09-06T01:27:24.621Z,99599.00
2018-09-06T01:29:53.988Z,99598.00
2018-09-06T01:32:24.518Z,99590.00
2018-09-06T01:34:54.311Z,99584.00
2018-09-06T01:37:23.732Z,99577.00
2018-09-06T01:39:53.274Z,99576.00
2018-09-06T01:42:25.051Z,99567.00
2018-09-06T01:44:54.433Z,99569.00
2018-09-06T01:47:23.597Z,99567.00
2018-09-06T01:49:52.824Z,99560.00
2018-09-06T01:52:23.102Z,99549.00
2018-09-06T01:54:53.349Z,99550.00
2018-09-06T01:57:23.648Z,99555.00
2018-09-06T01:59:53.441Z,99554.00
2018-09-06T02:02:22.802Z,99548.00
2018-09-06T02:04:52.098Z,99549.00
2018-09-06T02:07:21.580Z,99555.00
2018-09-06T02:09:51.626Z,99558.00
2018-09-06T02:12:21.152Z,99562.00
2018-09-06T02:14:50.429Z,99555.00
2018-09-06T02:17:19.641Z,99552.00
2018-09-06T02:19:48.883Z,99549.00
2018-09-06T02:22:18.303Z,99542.00
2018-09-06T02:24:48.935Z,99535.00
2018-09-06T02:27:18.180Z,99544.00
2018-09-06T02:29:48.349Z,99539.00
2018-09-06T02:32:18.963Z,99547.00
2018-09-06T02:34:49.014Z,99541.00
2018-09-06T02:37:18.778Z,99535.00
2018-09-06T02:39:50.828Z,99547.00
2018-09-06T02:42:20.107Z,99547.00
2018-09-06T02:47:28.242Z,99542.00
2018-09-06T02:50:03.947Z,99541.00
2018-09-06T02:52:34.338Z,99540.00
2018-09-06T02:55:05.651Z,99549.00
2018-09-06T02:57:35.937Z,99544.00
2018-09-06T03:00:06.681Z,99543.00
2018-09-06T03:02:37.328Z,99544.00
2018-09-06T03:05:06.754Z,99551.00
2018-09-06T03:07:36.579Z,99559.00
2018-09-06T03:10:06.008Z,99571.00
2018-09-06T03:12:35.632Z,99577.00
2018-09-06T03:15:05.183Z,99590.00
2018-09-06T03:17:35.682Z,99599.00
2018-09-06T03:20:05.809Z,99604.00
2018-09-06T03:22:36.169Z,99610.00
2018-09-06T03:25:05.589Z,99614.00
2018-09-06T03:27:36.145Z,99612.00
2018-09-06T03:30:05.855Z,99604.00
2018-09-06T03:32:36.575Z,99596.00
2018-09-06T03:35:08.213Z,99596.00
2018-09-06T03:37:38.711Z,99591.00
2018-09-06T03:40:09.440Z,99587.00
2018-09-06T03:42:39.603Z,99579.00
2018-09-06T03:45:09.901Z,99562.00
2018-09-06T03:47:40.042Z,99569.00
2018-09-06T03:50:12.489Z,99569.00
2018-09-06T03:52:43.046Z,99555.00
2018-09-06T03:55:13.173Z,99555.00
2018-09-06T03:57:46.182Z,99558.00
2018-09-06T04:00:17.797Z,99553.00
2018-09-06T04:02:49.606Z,99555.00
2018-09-06T04:05:21.726Z,99552.00
2018-09-06T04:07:53.089Z,99549.00
2018-09-06T04:10:24.657Z,99549.00
2018-09-06T04:12:55.175Z,99547.00
2018-09-06T04:15:26.680Z,99545.00
2018-09-06T04:17:57.334Z,99548.00
2018-09-06T04:20:27.770Z,99547.00
2018-09-06T04:22:57.633Z,99547.00
2018-09-06T04:25:27.438Z,99547.00
2018-09-06T04:27:57.394Z,99551.00
2018-09-06T04:30:27.351Z,99539.00
2018-09-06T04:32:58.657Z,99542.00
2018-09-06T04:35:29.872Z,99546.00
2018-09-06T04:38:00.312Z,99543.00
2018-09-06T04:40:30.203Z,99545.00
2018-09-06T04:43:02.306Z,99540.00
2018-09-06T04:45:32.701Z,99538.00
2018-09-06T04:48:05.674Z,99539.00
2018-09-06T04:50:35.822Z,99538.00
2018-09-06T04:53:05.694Z,99527.00
2018-09-06T04:55:38.477Z,99534.00
2018-09-06T04:58:08.567Z,99529.00
2018-09-06T05:00:40.838Z,99527.00
2018-09-06T05:06:59.412Z,99527.00
2018-09-06T05:09:28.841Z,99532.00
2018-09-06T05:11:58.115Z,99530.00
2018-09-06T05:14:27.194Z,99528.00
2018-09-06T05:16:56.305Z,99525.00
2018-09-06T05:19:25.562Z,99527.00
2018-09-06T05:21:55.427Z,99527.00
2018-09-06T05:24:24.535Z,99523.00
2018-09-06T05:26:53.661Z,99533.00
2018-09-06T05:29:23.088Z,99536.00
2018-09-06T05:31:52.270Z,99532.00
2018-09-06T05:34:21.534Z,99530.00
2018-09-06T05:36:50.698Z,99531.00
2018-09-06T05:39:19.900Z,99533.00
2018-09-06T05:41:49.099Z,99533.00
2018-09-06T05:44:18.398Z,99528.00
2018-09-06T05:46:47.609Z,99529.00
2018-09-06T05:49:17.748Z,99530.00
2018-09-06T05:51:46.972Z,99528.00
2018-09-06T05:54:16.706Z,99529.00
2018-09-06T05:56:46.108Z,99529.00
2018-09-06T05:59:15.375Z,99524.00
2018-09-06T06:01:44.705Z,99519.00
2018-09-06T06:04:14.014Z,99515.00
2018-09-06T06:06:43.236Z,99513.00
2018-09-06T06:09:19.093Z,99518.00
2018-09-06T06:11:49.036Z,99518.00
2018-09-06T06:14:18.388Z,99517.00
2018-09-06T06:16:47.889Z,99512.00
2018-09-06T06:19:17.095Z,99514.00
2018-09-06T06:21:46.648Z,99517.00
2018-09-06T06:24:16.229Z,99514.00
2018-09-06T06:26:45.365Z,99515.00
2018-09-06T06:29:14.801Z,99517.00
2018-09-06T06:31:44.252Z,99517.00
2018-09-06T06:34:13.415Z,99518.00
2018-09-06T06:36:43.397Z,99520.00
2018-09-06T06:39:14.173Z,99519.00
2018-09-06T06:41:44.102Z,99519.00
2018-09-06T06:44:14.114Z,99521.00
2018-09-06T06:46:43.463Z,99523.00
2018-09-06T06:49:12.747Z,99516.00
2018-09-06T06:51:42.241Z,99510.00
2018-09-06T06:54:12.802Z,99509.00
2018-09-06T06:56:42.932Z,99510.00
2018-09-06T06:59:11.976Z,99511.00
2018-09-06T07:01:42.675Z,99517.00
2018-09-06T07:04:13.392Z,99522.00
2018-09-06T07:06:43.493Z,99530.00
2018-09-06T07:09:13.661Z,99528.00
2018-09-06T07:11:43.249Z,99524.00
2018-09-06T07:14:13.924Z,99530.00
2018-09-06T07:16:43.651Z,99524.00
2018-09-06T07:19:14.472Z,99527.00
2018-09-06T07:21:44.210Z,99529.00
2018-09-06T07:24:13.478Z,99533.00
2018-09-06T07:26:43.822Z,99534.00
2018-09-06T07:29:13.587Z,99533.00
2018-09-06T07:31:42.736Z,99531.00
2018-09-06T07:34:13.142Z,99528.00
2018-09-06T07:36:43.768Z,99540.00
2018-09-06T07:39:12.888Z,99537.00
2018-09-06T07:41:41.942Z,99536.00
2018-09-06T07:44:11.457Z,99540.00
2018-09-06T07:46:42.432Z,99538.00
2018-09-06T07:49:14.411Z,99538.00
2018-09-06T07:51:44.549Z,99537.00
2018-09-06T07:54:14.224Z,99542.00
2018-09-06T07:56:44.085Z,99544.00
2018-09-06T07:59:15.458Z,99542.00
2018-09-06T08:01:45.828Z,99539.00
2018-09-06T08:04:19.094Z,99544.00
2018-09-06T08:06:48.699Z,99548.00
2018-09-06T08:09:18.373Z,99550.00
2018-09-06T08:11:48.241Z,99556.00
2018-09-06T08:14:18.071Z,99558.00
2018-09-06T08:16:48.088Z,99555.00
2018-09-06T08:19:18.076Z,99552.00
2018-09-06T08:21:48.662Z,99556.00
2018-09-06T08:24:19.551Z,99557.00
2018-09-06T08:26:51.291Z,99558.00
2018-09-06T08:29:20.795Z,99558.00
2018-09-06T08:31:50.410Z,99556.00
2018-09-06T08:34:20.261Z,99554.00
2018-09-06T08:36:50.871Z,99554.00
2018-09-06T08:39:20.964Z,99555.00
2018-09-06T08:41:52.409Z,99559.00
2018-09-06T08:44:21.908Z,99555.00
2018-09-06T08:46:53.580Z,99557.00
2018-09-06T08:49:23.052Z,99556.00
2018-09-06T08:51:52.932Z,99560.00
2018-09-06T08:54:22.289Z,99557.00
2018-09-06T08:56:53.111Z,99551.00
2018-09-06T08:59:22.558Z,99556.00
2018-09-06T09:01:52.286Z,99553.00
2018-09-06T09:04:22.161Z,99561.00
2018-09-06T09:06:54.285Z,99555.00
2018-09-06T09:09:24.232Z,99560.00
2018-09-06T09:11:54.229Z,99558.00
2018-09-06T09:14:23.791Z,99553.00
2018-09-06T09:16:53.556Z,99555.00
2018-09-06T09:19:22.620Z,99554.00
2018-09-06T09:21:52.488Z,99556.00
2018-09-06T09:24:22.338Z,99558.00
2018-09-06T09:26:52.325Z,99556.00
2018-09-06T09:29:21.716Z,99552.00
2018-09-06T09:31:51.157Z,99553.00
2018-09-06T09:34:21.887Z,99556.00
2018-09-06T09:36:51.515Z,99558.00
2018-09-06T09:39:20.761Z,99554.00
2018-09-06T09:41:50.788Z,99557.00
2018-09-06T09:44:20.719Z,99555.00
2018-09-06T09:49:20.090Z,99552.00
2018-09-06T09:51:51.486Z,99545.00
2018-09-06T09:54:21.593Z,99540.00
2018-09-06T09:56:52.425Z,99540.00
2018-09-06T09:59:22.709Z,99538.00
2018-09-06T10:01:57.598Z,99534.00
2018-09-06T10:05:37.862Z,99530.00
2018-09-06T10:08:12.639Z,99524.00
2018-09-06T10:10:43.138Z,99523.00
2018-09-06T10:13:13.169Z,99524.00
2018-09-06T10:15:44.249Z,99531.00
2018-09-06T10:18:14.245Z,99526.00
2018-09-06T10:20:43.820Z,99516.00
2018-09-06T10:23:15.031Z,99521.00
2018-09-06T10:25:45.996Z,99516.00
2018-09-06T10:28:16.992Z,99519.00
2018-09-06T10:30:46.625Z,99516.00
2018-09-06T10:33:17.558Z,99517.00
2018-09-06T10:35:48.371Z,99514.00
2018-09-06T10:38:20.980Z,99516.00
2018-09-06T10:40:51.276Z,99516.00
2018-09-06T10:43:21.634Z,99515.00
2018-09-06T10:45:51.696Z,99516.00
2018-09-06T10:48:22.054Z,99511.00
2018-09-06T10:50:51.510Z,99515.00
2018-09-06T10:53:21.029Z,99508.00
2018-09-06T10:55:50.585Z,99505.00
2018-09-06T10:58:19.619Z,99501.00
2018-09-06T11:00:57.472Z,99502.00
2018-09-06T11:03:28.012Z,99510.00
2018-09-06T11:05:58.713Z,99509.00
2018-09-06T11:08:30.242Z,99505.00
2018-09-06T11:10:59.706Z,99495.00
2018-09-06T11:13:29.196Z,99500.00
2018-09-06T11:15:58.799Z,99500.00
2018-09-06T11:18:28.969Z,99501.00
2018-09-06T11:20:58.631Z,99504.00
2018-09-06T11:23:28.787Z,99506.00
2018-09-06T11:25:58.967Z,99506.00
2018-09-06T11:28:28.353Z,99507.00
2018-09-06T11:30:57.504Z,99498.00
2018-09-06T11:33:26.592Z,99493.00
2018-09-06T11:35:56.476Z,99494.00
2018-09-06T11:38:26.210Z,99491.00
2018-09-06T11:40:55.697Z,99485.00
2018-09-06T11:43:25.685Z,99481.00
2018-09-06T11:45:56.940Z,99485.00
2018-09-06T11:48:26.896Z,99485.00
2018-09-06T11:50:56.563Z,99484.00
2018-09-06T11:53:27.103Z,99474.00
2018-09-06T11:55:56.907Z,99477.00
2018-09-06T11:58:26.940Z,99475.00
2018-09-06T12:00:56.391Z,99480.00
2018-09-06T12:03:25.905Z,99478.00
2018-09-06T12:05:55.744Z,99482.00
2018-09-06T12:08:25.293Z,99476.00
2018-09-06T12:10:54.728Z,99470.00
2018-09-06T12:13:24.211Z,99464.00
2018-09-06T12:15:54.638Z,99466.00
2018-09-06T12:18:26.074Z,99462.00
2018-09-06T12:20:56.167Z,99455.00
2018-09-06T12:23:25.684Z,99457.00
2018-09-06T12:25:55.068Z,99456.00
2018-09-06T12:28:25.058Z,99455.00
2018-09-06T12:30:55.386Z,99457.00
2018-09-06T12:33:25.114Z,99456.00
2018-09-06T12:35:54.469Z,99452.00
2018-09-06T12:38:23.855Z,99449.00
2018-09-06T12:40:53.726Z,99446.00
2018-09-06T12:43:25.233Z,99448.00
2018-09-06T12:45:54.737Z,99445.00
2018-09-06T12:48:24.486Z,99446.00
2018-09-06T12:50:54.274Z,99444.00
2018-09-06T12:53:23.706Z,99442.00
2018-09-06T12:55:53.442Z,99436.00
2018-09-06T12:58:22.958Z,99433.00
2018-09-06T13:00:53.964Z,99429.00
2018-09-06T13:03:24.108Z,99433.00
2018-09-06T13:05:53.765Z,99430.00
2018-09-06T13:08:23.716Z,99431.00
2018-09-06T13:10:53.443Z,99427.00
2018-09-06T13:13:22.804Z,99429.00
2018-09-06T13:15:52.307Z,99425.00
2018-09-06T13:18:22.029Z,99423.00
2018-09-06T13:20:51.618Z,99425.00
2018-09-06T13:23:21.613Z,99418.00
2018-09-06T13:25:51.076Z,99426.00
2018-09-06T13:28:21.161Z,99424.00
2018-09-06T13:30:50.534Z,99422.00
2018-09-06T13:33:21.338Z,99425.00
2018-09-06T13:35:51.814Z,99422.00
2018-09-06T13:38:21.642Z,99424.00
2018-09-06T13:40:51.638Z,99416.00
2018-09-06T13:43:22.333Z,99415.00
2018-09-06T13:45:52.223Z,99424.00
2018-09-06T13:48:24.608Z,99416.00
2018-09-06T13:50:54.496Z,99417.00
2018-09-06T13:53:24.190Z,99421.00
2018-09-06T13:55:54.079Z,99417.00
2018-09-06T13:58:23.935Z,99412.00
2018-09-06T14:00:53.485Z,99411.00
2018-09-06T14:03:22.856Z,99413.00
2018-09-06T14:05:52.537Z,99417.00
2018-09-06T14:08:22.196Z,99420.00
2018-09-06T14:10:51.928Z,99412.00
2018-09-06T14:13:21.461Z,99409.00
2018-09-06T14:15:51.461Z,99407.00
2018-09-06T14:18:20.823Z,99407.00
2018-09-06T14:20:50.847Z,99404.00
2018-09-06T14:23:21.456Z,99400.00
2018-09-06T14:25:50.897Z,99394.00
2018-09-06T14:28:20.607Z,99391.00
2018-09-06T14:30:50.623Z,99395.00
2018-09-06T14:33:20.438Z,99389.00
2018-09-06T14:35:50.333Z,99390.00
2018-09-06T14:38:21.684Z,99385.00
2018-09-06T14:40:52.273Z,99384.00
2018-09-06T14:48:20.264Z,99383.00
2018-09-06T14:50:50.335Z,99383.00
2018-09-06T14:53:19.770Z,99376.00
2018-09-06T14:55:49.814Z,99375.00
2018-09-06T14:58:22.562Z,99365.00
2018-09-06T15:00:53.037Z,99370.00
2018-09-06T15:03:22.908Z,99368.00
2018-09-06T15:05:53.196Z,99371.00
2018-09-06T15:08:23.198Z,99365.00
2018-09-06T15:10:55.040Z,99358.00
2018-09-06T15:13:24.804Z,99357.00
2018-09-06T15:15:54.692Z,99362.00
2018-09-06T15:18:27.421Z,99369.00
2018-09-06T15:20:56.788Z,99380.00
2018-09-06T15:23:26.780Z,99387.00
2018-09-06T15:25:57.561Z,99384.00
2018-09-06T15:28:27.055Z,99388.00
2018-09-06T15:30:56.622Z,99384.00
2018-09-06T15:33:26.200Z,99387.00
2018-09-06T15:35:55.421Z,99386.00
2018-09-06T15:38:24.543Z,99392.00
2018-09-06T15:40:53.940Z,99385.00
2018-09-06T15:43:23.086Z,99378.00
2018-09-06T15:45:52.214Z,99384.00
2018-09-06T15:48:21.428Z,99377.00
2018-09-06T15:50:50.783Z,99379.00
2018-09-06T15:53:20.009Z,99371.00
2018-09-06T15:55:49.431Z,99366.00
2018-09-06T15:58:18.881Z,99363.00
2018-09-06T16:00:48.271Z,99363.00
2018-09-06T16:03:17.587Z,99362.00
2018-09-06T16:05:47.019Z,99364.00
2018-09-06T16:08:16.713Z,99363.00
2018-09-06T16:10:45.870Z,99354.00
2018-09-06T16:13:15.302Z,99357.00
2018-09-06T16:15:44.578Z,99356.00
2018-09-06T16:18:13.853Z,99354.00
2018-09-06T16:20:43.195Z,99349.00
2018-09-06T16:23:12.515Z,99352.00
2018-09-06T16:25:41.956Z,99357.00
2018-09-06T16:28:11.730Z,99360.00
2018-09-06T16:30:41.426Z,99362.00
2018-09-06T16:33:10.945Z,99351.00
2018-09-06T16:35:40.405Z,99351.00
2018-09-06T16:38:10.256Z,99354.00
2018-09-06T16:40:39.322Z,99359.00
2018-09-06T16:43:08.419Z,99361.00
2018-09-06T16:45:37.825Z,99358.00
2018-09-06T16:48:07.365Z,99362.00
2018-09-06T16:50:36.437Z,99367.00
2018-09-06T16:53:06.256Z,99369.00
2018-09-06T16:55:35.838Z,99373.00
2018-09-06T16:58:06.765Z,99376.00
2018-09-06T17:00:36.370Z,99375.00
2018-09-06T17:03:06.021Z,99377.00
2018-09-06T17:05:35.716Z,99378.00
2018-09-06T17:08:04.971Z,99379.00
2018-09-06T17:10:34.616Z,99378.00
2018-09-06T17:13:09.676Z,99384.00
2018-09-06T17:15:42.082Z,99383.00
2018-09-06T17:18:11.770Z,99383.00
2018-09-06T17:20:50.750Z,99382.00
2018-09-06T17:23:19.933Z,99386.00
2018-09-06T17:25:50.934Z,99386.00
2018-09-06T17:28:20.907Z,99387.00
2018-09-06T17:30:52.717Z,99386.00
2018-09-06T17:33:22.471Z,99387.00
2018-09-06T17:35:51.900Z,99383.00
2018-09-06T17:38:22.450Z,99379.00
2018-09-06T17:40:52.475Z,99384.00
2018-09-06T17:43:22.676Z,99399.00
2018-09-06T17:45:52.695Z,99406.00
2018-09-06T17:48:23.408Z,99408.00
2018-09-06T17:50:53.246Z,99411.00
2018-09-06T17:53:24.408Z,99405.00
2018-09-06T17:55:54.752Z,99401.00
2018-09-06T17:58:22.730Z,99405.00
2018-09-06T18:01:40.995Z,99403.00
2018-09-06T18:04:10.500Z,99400.00
2018-09-06T18:06:40.496Z,99400.00
2018-09-06T18:09:12.469Z,99403.00
2018-09-06T18:11:43.257Z,99405.00
2018-09-06T18:14:13.108Z,99403.00
2018-09-06T18:16:43.090Z,99411.00
2018-09-06T18:19:12.253Z,99412.00
2018-09-06T18:21:42.385Z,99420.00
2018-09-06T18:24:11.880Z,99415.00
2018-09-06T18:26:41.455Z,99421.00
2018-09-06T18:29:11.384Z,99430.00
2018-09-06T18:31:40.741Z,99432.00
2018-09-06T18:34:11.229Z,99437.00
2018-09-06T18:36:41.005Z,99435.00
2018-09-06T18:39:11.183Z,99436.00
2018-09-06T18:41:40.725Z,99432.00
2018-09-06T18:44:10.098Z,99434.00
2018-09-06T18:46:39.409Z,99435.00
2018-09-06T18:49:09.204Z,99434.00
2018-09-06T18:51:38.861Z,99431.00
2018-09-06T18:54:09.198Z,99439.00
2018-09-06T18:56:38.501Z,99437.00
2018-09-06T18:59:07.940Z,99432.00
2018-09-06T19:01:37.045Z,99443.00
2018-09-06T19:04:06.223Z,99445.00
2018-09-06T19:06:35.397Z,99446.00
2018-09-06T19:09:06.449Z,99449.00
2018-09-06T19:11:36.139Z,99457.00
2018-09-06T19:14:05.452Z,99456.00
2018-09-06T19:16:34.733Z,99465.00
2018-09-06T19:19:04.220Z,99465.00
2018-09-06T19:21:33.465Z,99464.00
2018-09-06T19:24:02.792Z,99470.00
2018-09-06T19:26:32.054Z,99466.00
2018-09-06T19:29:01.368Z,99466.00
2018-09-06T19:31:30.576Z,99471.00
2018-09-06T19:34:00.097Z,99466.00
2018-09-06T19:36:29.243Z,99471.00
2018-09-06T19:38:59.409Z,99476.00
2018-09-06T19:41:28.810Z,99473.00
2018-09-06T19:43:58.196Z,99476.00
2018-09-06T19:46:27.696Z,99473.00
2018-09-06T19:48:57.026Z,99476.00
2018-09-06T19:51:26.124Z,99479.00
2018-09-06T19:53:55.543Z,99486.00
2018-09-06T19:56:24.936Z,99484.00
2018-09-06T19:58:54.233Z,99484.00
2018-09-06T20:01:23.704Z,99485.00
2018-09-06T20:03:52.856Z,99490.00
2018-09-06T20:06:22.003Z,99487.00
2018-09-06T20:08:51.697Z,99481.00
2018-09-06T20:11:23.104Z,99482.00
2018-09-06T20:13:52.313Z,99475.00
2018-09-06T20:16:21.431Z,99473.00
2018-09-06T20:18:51.483Z,99482.00
2018-09-06T20:21:21.564Z,99488.00
2018-09-06T20:23:51.109Z,99491.00
2018-09-06T20:26:20.453Z,99491.00
2018-09-06T20:28:49.998Z,99490.00
2018-09-06T20:31:19.612Z,99492.00
2018-09-06T20:33:49.190Z,99500.00
2018-09-06T20:36:18.588Z,99497.00
2018-09-06T20:38:47.735Z,99502.00
2018-09-06T20:41:16.938Z,99505.00
2018-09-06T20:43:46.121Z,99505.00
2018-09-06T20:46:15.249Z,99506.00
2018-09-06T20:48:44.379Z,99503.00
2018-09-06T20:51:13.555Z,99506.00
2018-09-06T20:53:42.719Z,99502.00
2018-09-06T20:56:12.088Z,99500.00
2018-09-06T20:58:41.404Z,99502.00
2018-09-06T21:01:10.704Z,99503.00
2018-09-06T21:03:39.842Z,99500.00
2018-09-06T21:06:08.910Z,99506.00
2018-09-06T21:08:38.100Z,99508.00
2018-09-06T21:11:07.195Z,99507.00
2018-09-06T21:13:36.362Z,99508.00
2018-09-06T21:16:05.437Z,99504.00
2018-09-06T21:18:34.594Z,99503.00
2018-09-06T21:21:03.719Z,99510.00
2018-09-06T21:23:32.949Z,99512.00
2018-09-06T21:26:02.059Z,99510.00
2018-09-06T21:28:31.292Z,99512.00
2018-09-06T21:31:00.952Z,99506.00
2018-09-06T21:33:30.147Z,99505.00
2018-09-06T21:35:59.644Z,99503.00
2018-09-06T21:38:28.853Z,99503.00
2018-09-06T21:40:58.008Z,99509.00
2018-09-06T21:43:27.173Z,99506.00
2018-09-06T21:45:56.377Z,99513.00
2018-09-06T21:48:25.688Z,99506.00
2018-09-06T21:50:54.944Z,99501.00
2018-09-06T21:53:24.066Z,99501.00
2018-09-06T21:55:53.302Z,99493.00
2018-09-06T21:58:22.442Z,99491.00
2018-09-06T22:00:51.536Z,99489.00
2018-09-06T22:03:26.036Z,99486.00
2018-09-06T22:05:55.417Z,99486.00
2018-09-06T22:08:24.661Z,99489.00
2018-09-06T22:10:53.935Z,99486.00
2018-09-06T22:13:23.330Z,99486.00
2018-09-06T22:15:52.505Z,99487.00
2018-09-06T22:18:21.592Z,99488.00
2018-09-06T22:20:50.678Z,99489.00
2018-09-06T22:23:19.821Z,99489.00
2018-09-06T22:25:49.780Z,99490.00
2018-09-06T22:28:19.067Z,99480.00
2018-09-06T22:30:48.227Z,99481.00
2018-09-06T22:33:17.276Z,99486.00
2018-09-06T22:35:46.506Z,99487.00
2018-09-06T22:38:15.708Z,99485.00
2018-09-06T22:40:44.918Z,99485.00
2018-09-06T22:43:15.754Z,99483.00
2018-09-06T22:45:47.826Z,99485.00
2018-09-06T22:48:19.780Z,99487.00
2018-09-06T22:50:50.715Z,99490.00
2018-09-06T22:53:20.243Z,99492.00
2018-09-06T22:55:49.640Z,99494.00
2018-09-06T22:58:20.012Z,99493.00
2018-09-06T23:00:49.461Z,99492.00
2018-09-06T23:03:26.636Z,99484.00
2018-09-06T23:05:56.148Z,99485.00
2018-09-06T23:08:25.904Z,99484.00
2018-09-06T23:10:59.688Z,99481.00
2018-09-06T23:13:29.653Z,99484.00
2018-09-06T23:16:03.511Z,99484.00
2018-09-06T23:18:33.809Z,99479.00
2018-09-06T23:21:04.265Z,99480.00
2018-09-06T23:23:33.705Z,99477.00
2018-09-06T23:26:03.762Z,99471.00
2018-09-06T23:28:34.763Z,99463.00
2018-09-06T23:31:06.904Z,99471.00
2018-09-06T23:33:39.301Z,99476.00
2018-09-06T23:36:11.815Z,99475.00
2018-09-06T23:38:42.171Z,99474.00
2018-09-06T23:41:15.129Z,99469.00
2018-09-06T23:43:45.639Z,99469.00
2018-09-06T23:46:16.024Z,99463.00
2018-09-06T23:48:46.151Z,99464.00
2018-09-06T23:51:16.300Z,99467.00
2018-09-06T23:53:46.443Z,99468.00
2018-09-06T23:56:18.921Z,99468.00
2018-09-06T23:58:49.292Z,99466.00
